sensor_id;sensor_type;location;lat;lon;timestamp;temperature;humidity
18868;DHT22;9563;49.240;9.088;2023-10-09T04:01:40;12.70;99.90
18868;DHT22;9563;49.240;9.088;2023-10-09T04:04:07;12.60;99.90
18868;DHT22;9563;49.240;9.088;2023-10-09T04:06:36;12.60;99.90
18868;DHT22;9563;49.240;9.088;2023-10-09T04:09:05;12.60;99.90
18868;DHT22;9563;49.240;9.088;2023-10-09T04:11:54;12.50;99.90
18868;DHT22;9563;49.240;9.088;2023-10-09T04:14:40;12.50;99.90
18868;DHT22;9563;49.240;9.088;2023-10-09T04:17:16;12.50;99.90
18868;DHT22;9563;49.240;9.088;2023-10-09T04:20:06;12.50;99.90
18868;DHT22;9563;49.240;9.088;2023-10-09T04:22:56;12.50;99.90
18868;DHT22;9563;49.240;9.088;2023-10-09T04:25:31;12.60;99.90
18868;DHT22;9563;49.240;9.088;2023-10-09T04:28:08;12.70;99.90
18868;DHT22;9563;49.240;9.088;2023-10-09T04:30:36;12.60;99.90
18868;DHT22;9563;49.240;9.088;2023-10-09T04:33:07;12.60;99.90
18868;DHT22;9563;49.240;9.088;2023-10-09T04:35:54;12.50;99.90
18868;DHT22;9563;49.240;9.088;2023-10-09T04:38:34;12.40;99.90
18868;DHT22;9563;49.240;9.088;2023-10-09T04:41:05;12.30;99.90
18868;DHT22;9563;49.240;9.088;2023-10-09T04:43:33;12.20;99.90
18868;DHT22;9563;49.240;9.088;2023-10-09T04:45:59;12.20;99.90
18868;DHT22;9563;49.240;9.088;2023-10-09T04:48:34;12.10;99.90
18868;DHT22;9563;49.240;9.088;2023-10-09T04:51:05;12.10;99.90
18868;DHT22;9563;49.240;9.088;2023-10-09T04:53:57;12.10;99.90
18868;DHT22;9563;49.240;9.088;2023-10-09T04:56:39;12.10;99.90
18868;DHT22;9563;49.240;9.088;2023-10-09T04:59:18;12.10;99.90
18868;DHT22;9563;49.240;9.088;2023-10-09T05:01:50;12.20;99.90
18868;DHT22;9563;49.240;9.088;2023-10-09T05:04:26;12.20;99.90
18868;DHT22;9563;49.240;9.088;2023-10-09T05:07:00;12.30;99.90
18868;DHT22;9563;49.240;9.088;2023-10-09T05:09:33;12.30;99.90
18868;DHT22;9563;49.240;9.088;2023-10-09T05:12:20;12.30;99.90
18868;DHT22;9563;49.240;9.088;2023-10-09T05:14:51;12.40;99.90
18868;DHT22;9563;49.240;9.088;2023-10-09T05:17:34;12.40;99.90
18868;DHT22;9563;49.240;9.088;2023-10-09T05:20:03;12.50;99.90
18868;DHT22;9563;49.240;9.088;2023-10-09T05:22:47;12.60;99.90
18868;DHT22;9563;49.240;9.088;2023-10-09T05:25:28;12.60;99.90
18868;DHT22;9563;49.240;9.088;2023-10-09T05:28:18;12.70;99.90
18868;DHT22;9563;49.240;9.088;2023-10-09T05:31:27;12.70;99.90
18868;DHT22;9563;49.240;9.088;2023-10-09T05:34:21;12.70;99.90
18868;DHT22;9563;49.240;9.088;2023-10-09T05:36:48;12.70;99.90
18868;DHT22;9563;49.240;9.088;2023-10-09T05:39:14;12.70;99.90
18868;DHT22;9563;49.240;9.088;2023-10-09T05:41:48;12.80;99.90
18868;DHT22;9563;49.240;9.088;2023-10-09T05:44:19;12.80;99.90
18868;DHT22;9563;49.240;9.088;2023-10-09T05:47:04;12.70;99.90
18868;DHT22;9563;49.240;9.088;2023-10-09T05:49:44;12.80;99.90
18868;DHT22;9563;49.240;9.088;2023-10-09T05:52:27;12.80;99.90
18868;DHT22;9563;49.240;9.088;2023-10-09T05:55:26;12.80;99.90
18868;DHT22;9563;49.240;9.088;2023-10-09T05:58:11;12.80;99.90
18868;DHT22;9563;49.240;9.088;2023-10-09T06:00:55;12.80;99.90
18868;DHT22;9563;49.240;9.088;2023-10-09T06:03:41;12.90;99.90
18868;DHT22;9563;49.240;9.088;2023-10-09T06:06:22;12.90;99.90
18868;DHT22;9563;49.240;9.088;2023-10-09T06:09:08;12.90;99.90
18868;DHT22;9563;49.240;9.088;2023-10-09T06:11:53;13.00;99.90
18868;DHT22;9563;49.240;9.088;2023-10-09T06:14:41;13.00;99.90
18868;DHT22;9563;49.240;9.088;2023-10-09T06:17:24;13.10;99.90
18868;DHT22;9563;49.240;9.088;2023-10-09T06:19:54;13.10;99.90
18868;DHT22;9563;49.240;9.088;2023-10-09T06:22:45;13.20;99.90
18868;DHT22;9563;49.240;9.088;2023-10-09T06:25:22;13.20;99.90
18868;DHT22;9563;49.240;9.088;2023-10-09T06:27:58;13.20;99.90
18868;DHT22;9563;49.240;9.088;2023-10-09T06:30:25;13.20;99.90
18868;DHT22;9563;49.240;9.088;2023-10-09T06:32:52;13.20;99.90
18868;DHT22;9563;49.240;9.088;2023-10-09T06:35:34;13.20;99.90
18868;DHT22;9563;49.240;9.088;2023-10-09T06:38:01;13.20;99.90
18868;DHT22;9563;49.240;9.088;2023-10-09T06:44:13;13.20;99.90
18868;DHT22;9563;49.240;9.088;2023-10-09T06:47:03;13.30;99.90
18868;DHT22;9563;49.240;9.088;2023-10-09T06:49:33;13.30;99.90
18868;DHT22;9563;49.240;9.088;2023-10-09T06:52:03;13.40;99.90
18868;DHT22;9563;49.240;9.088;2023-10-09T06:54:41;13.40;99.90
18868;DHT22;9563;49.240;9.088;2023-10-09T06:57:17;13.40;99.90
18868;DHT22;9563;49.240;9.088;2023-10-09T07:00:09;13.40;99.90
18868;DHT22;9563;49.240;9.088;2023-10-09T07:02:54;13.50;99.90
18868;DHT22;9563;49.240;9.088;2023-10-09T07:05:23;13.60;99.90
18868;DHT22;9563;49.240;9.088;2023-10-09T07:07:58;13.60;99.90
18868;DHT22;9563;49.240;9.088;2023-10-09T07:10:44;13.70;99.90
18868;DHT22;9563;49.240;9.088;2023-10-09T07:13:28;13.80;99.90
18868;DHT22;9563;49.240;9.088;2023-10-09T07:15:54;13.80;99.90
18868;DHT22;9563;49.240;9.088;2023-10-09T07:18:38;13.80;99.90
18868;DHT22;9563;49.240;9.088;2023-10-09T07:21:14;13.90;99.90
18868;DHT22;9563;49.240;9.088;2023-10-09T07:23:55;13.90;99.90
18868;DHT22;9563;49.240;9.088;2023-10-09T07:26:23;14.00;99.90
18868;DHT22;9563;49.240;9.088;2023-10-09T07:29:03;14.00;99.90
18868;DHT22;9563;49.240;9.088;2023-10-09T07:31:41;14.10;99.90
18868;DHT22;9563;49.240;9.088;2023-10-09T07:34:11;14.20;99.90
18868;DHT22;9563;49.240;9.088;2023-10-09T07:37:03;14.30;99.90
18868;DHT22;9563;49.240;9.088;2023-10-09T07:39:35;14.40;99.90
18868;DHT22;9563;49.240;9.088;2023-10-09T07:42:04;14.50;99.90
18868;DHT22;9563;49.240;9.088;2023-10-09T07:44:45;14.60;99.90
18868;DHT22;9563;49.240;9.088;2023-10-09T07:47:35;14.70;99.90
18868;DHT22;9563;49.240;9.088;2023-10-09T07:50:26;14.80;99.90
18868;DHT22;9563;49.240;9.088;2023-10-09T07:53:04;14.80;99.90
18868;DHT22;9563;49.240;9.088;2023-10-09T07:55:45;14.90;99.90
18868;DHT22;9563;49.240;9.088;2023-10-09T07:58:22;15.00;99.90
18868;DHT22;9563;49.240;9.088;2023-10-09T08:00:53;15.10;99.90
18868;DHT22;9563;49.240;9.088;2023-10-09T08:03:41;15.20;99.90
18868;DHT22;9563;49.240;9.088;2023-10-09T08:06:11;15.30;99.90
18868;DHT22;9563;49.240;9.088;2023-10-09T08:08:52;15.30;99.90
18868;DHT22;9563;49.240;9.088;2023-10-09T08:11:34;15.40;99.90
18868;DHT22;9563;49.240;9.088;2023-10-09T08:14:09;15.50;99.90
18868;DHT22;9563;49.240;9.088;2023-10-09T08:16:55;15.50;99.90
18868;DHT22;9563;49.240;9.088;2023-10-09T08:19:37;15.60;99.90
18868;DHT22;9563;49.240;9.088;2023-10-09T08:22:21;15.70;99.90
18868;DHT22;9563;49.240;9.088;2023-10-09T08:25:06;15.80;99.90
18868;DHT22;9563;49.240;9.088;2023-10-09T08:27:35;15.80;99.90
18868;DHT22;9563;49.240;9.088;2023-10-09T08:30:13;15.90;99.90
18868;DHT22;9563;49.240;9.088;2023-10-09T08:32:54;16.00;99.90
18868;DHT22;9563;49.240;9.088;2023-10-09T08:35:28;16.10;99.90
18868;DHT22;9563;49.240;9.088;2023-10-09T08:37:55;16.20;99.90
18868;DHT22;9563;49.240;9.088;2023-10-09T08:40:31;16.20;99.90
18868;DHT22;9563;49.240;9.088;2023-10-09T08:43:08;16.30;99.90
18868;DHT22;9563;49.240;9.088;2023-10-09T08:45:37;16.30;99.90
18868;DHT22;9563;49.240;9.088;2023-10-09T08:48:06;16.40;99.90
18868;DHT22;9563;49.240;9.088;2023-10-09T08:50:34;16.40;99.90
18868;DHT22;9563;49.240;9.088;2023-10-09T08:53:02;16.50;99.90
18868;DHT22;9563;49.240;9.088;2023-10-09T08:55:30;16.60;99.90
18868;DHT22;9563;49.240;9.088;2023-10-09T08:57:57;16.70;99.90
18868;DHT22;9563;49.240;9.088;2023-10-09T09:00:25;16.70;99.90
18868;DHT22;9563;49.240;9.088;2023-10-09T09:02:59;16.80;99.90
18868;DHT22;9563;49.240;9.088;2023-10-09T09:05:26;16.90;99.90
18868;DHT22;9563;49.240;9.088;2023-10-09T09:07:55;17.00;99.90
18868;DHT22;9563;49.240;9.088;2023-10-09T09:10:27;17.10;99.90
18868;DHT22;9563;49.240;9.088;2023-10-09T09:13:01;17.20;99.90
18868;DHT22;9563;49.240;9.088;2023-10-09T09:15:30;17.30;99.90
18868;DHT22;9563;49.240;9.088;2023-10-09T09:18:05;17.40;99.90
18868;DHT22;9563;49.240;9.088;2023-10-09T09:20:35;17.50;99.90
18868;DHT22;9563;49.240;9.088;2023-10-09T09:23:09;17.60;99.90
18868;DHT22;9563;49.240;9.088;2023-10-09T09:25:42;17.70;99.90
18868;DHT22;9563;49.240;9.088;2023-10-09T09:28:13;17.80;99.90
18868;DHT22;9563;49.240;9.088;2023-10-09T09:30:46;17.90;99.90
18868;DHT22;9563;49.240;9.088;2023-10-09T09:33:21;17.90;99.90
18868;DHT22;9563;49.240;9.088;2023-10-09T09:36:03;17.90;99.90
18868;DHT22;9563;49.240;9.088;2023-10-09T09:38:31;18.00;99.90
18868;DHT22;9563;49.240;9.088;2023-10-09T09:41:08;18.00;99.90
18868;DHT22;9563;49.240;9.088;2023-10-09T09:43:37;18.00;99.90
18868;DHT22;9563;49.240;9.088;2023-10-09T09:46:11;18.00;99.90
18868;DHT22;9563;49.240;9.088;2023-10-09T09:48:39;18.10;99.90
18868;DHT22;9563;49.240;9.088;2023-10-09T09:51:11;18.10;99.90
18868;DHT22;9563;49.240;9.088;2023-10-09T09:53:39;18.10;99.90
18868;DHT22;9563;49.240;9.088;2023-10-09T09:56:06;18.10;99.90
18868;DHT22;9563;49.240;9.088;2023-10-09T09:58:39;18.10;99.90
18868;DHT22;9563;49.240;9.088;2023-10-09T10:01:11;18.10;99.90
18868;DHT22;9563;49.240;9.088;2023-10-09T10:03:47;18.10;99.90
18868;DHT22;9563;49.240;9.088;2023-10-09T10:06:14;18.10;99.90
18868;DHT22;9563;49.240;9.088;2023-10-09T10:08:44;18.10;99.90
18868;DHT22;9563;49.240;9.088;2023-10-09T10:11:44;18.00;99.90
18868;DHT22;9563;49.240;9.088;2023-10-09T10:14:11;18.00;99.90
18868;DHT22;9563;49.240;9.088;2023-10-09T10:17:02;18.00;99.90
18868;DHT22;9563;49.240;9.088;2023-10-09T10:20:03;18.00;99.90
18868;DHT22;9563;49.240;9.088;2023-10-09T10:23:15;18.00;99.90
18868;DHT22;9563;49.240;9.088;2023-10-09T10:25:51;18.00;99.90
18868;DHT22;9563;49.240;9.088;2023-10-09T10:28:26;18.00;99.90
18868;DHT22;9563;49.240;9.088;2023-10-09T10:31:04;18.10;99.90
18868;DHT22;9563;49.240;9.088;2023-10-09T10:34:04;18.10;99.90
18868;DHT22;9563;49.240;9.088;2023-10-09T10:36:36;18.10;99.90
18868;DHT22;9563;49.240;9.088;2023-10-09T10:39:08;18.10;99.90
18868;DHT22;9563;49.240;9.088;2023-10-09T10:41:37;18.10;99.90
18868;DHT22;9563;49.240;9.088;2023-10-09T10:44:23;18.10;99.90
18868;DHT22;9563;49.240;9.088;2023-10-09T10:47:04;18.10;99.90
18868;DHT22;9563;49.240;9.088;2023-10-09T10:49:44;18.10;99.90
18868;DHT22;9563;49.240;9.088;2023-10-09T10:52:20;18.10;99.90
18868;DHT22;9563;49.240;9.088;2023-10-09T10:54:47;18.10;99.90
18868;DHT22;9563;49.240;9.088;2023-10-09T10:57:35;18.10;99.90
18868;DHT22;9563;49.240;9.088;2023-10-09T11:00:19;18.10;99.90
18868;DHT22;9563;49.240;9.088;2023-10-09T11:03:04;18.10;99.90
18868;DHT22;9563;49.240;9.088;2023-10-09T11:05:44;18.00;99.90
18868;DHT22;9563;49.240;9.088;2023-10-09T11:08:16;18.10;99.90
18868;DHT22;9563;49.240;9.088;2023-10-09T11:10:48;18.10;99.90
18868;DHT22;9563;49.240;9.088;2023-10-09T11:13:25;18.10;99.90
18868;DHT22;9563;49.240;9.088;2023-10-09T11:15:59;18.20;99.90
18868;DHT22;9563;49.240;9.088;2023-10-09T11:18:40;18.30;99.90
18868;DHT22;9563;49.240;9.088;2023-10-09T11:21:15;18.30;99.90
18868;DHT22;9563;49.240;9.088;2023-10-09T11:24:00;18.30;99.90
18868;DHT22;9563;49.240;9.088;2023-10-09T11:26:41;18.50;99.90
18868;DHT22;9563;49.240;9.088;2023-10-09T11:29:09;18.60;99.90
18868;DHT22;9563;49.240;9.088;2023-10-09T11:31:59;18.60;99.90
18868;DHT22;9563;49.240;9.088;2023-10-09T11:34:27;18.70;99.90
18868;DHT22;9563;49.240;9.088;2023-10-09T11:37:01;18.70;99.90
18868;DHT22;9563;49.240;9.088;2023-10-09T11:39:29;18.80;99.90
18868;DHT22;9563;49.240;9.088;2023-10-09T11:42:04;19.00;99.90
18868;DHT22;9563;49.240;9.088;2023-10-09T11:44:40;19.10;99.90
18868;DHT22;9563;49.240;9.088;2023-10-09T11:47:12;19.30;99.90
18868;DHT22;9563;49.240;9.088;2023-10-09T11:49:51;19.60;99.90
18868;DHT22;9563;49.240;9.088;2023-10-09T11:52:55;19.70;99.90
18868;DHT22;9563;49.240;9.088;2023-10-09T11:55:35;19.90;99.90
18868;DHT22;9563;49.240;9.088;2023-10-09T11:58:02;19.90;99.90
18868;DHT22;9563;49.240;9.088;2023-10-09T12:00:30;19.90;99.90
18868;DHT22;9563;49.240;9.088;2023-10-09T12:03:11;19.90;99.90
18868;DHT22;9563;49.240;9.088;2023-10-09T12:05:39;19.80;99.90
18868;DHT22;9563;49.240;9.088;2023-10-09T12:08:11;19.90;99.90
18868;DHT22;9563;49.240;9.088;2023-10-09T12:10:41;20.10;99.90
18868;DHT22;9563;49.240;9.088;2023-10-09T12:13:08;20.30;99.90
18868;DHT22;9563;49.240;9.088;2023-10-09T12:15:34;20.60;99.90
18868;DHT22;9563;49.240;9.088;2023-10-09T12:18:07;20.80;99.90
18868;DHT22;9563;49.240;9.088;2023-10-09T12:20:40;20.90;99.90
18868;DHT22;9563;49.240;9.088;2023-10-09T12:23:08;20.90;99.90
18868;DHT22;9563;49.240;9.088;2023-10-09T12:25:41;20.90;99.90
18868;DHT22;9563;49.240;9.088;2023-10-09T12:28:11;20.80;99.90
18868;DHT22;9563;49.240;9.088;2023-10-09T12:30:39;20.80;99.90
18868;DHT22;9563;49.240;9.088;2023-10-09T12:33:07;20.80;99.90
18868;DHT22;9563;49.240;9.088;2023-10-09T12:35:36;20.70;99.90
18868;DHT22;9563;49.240;9.088;2023-10-09T12:38:04;20.70;99.90
18868;DHT22;9563;49.240;9.088;2023-10-09T12:40:34;20.80;99.90
18868;DHT22;9563;49.240;9.088;2023-10-09T12:43:03;20.80;99.90
18868;DHT22;9563;49.240;9.088;2023-10-09T12:45:33;20.90;99.90
18868;DHT22;9563;49.240;9.088;2023-10-09T12:48:01;21.10;99.90
18868;DHT22;9563;49.240;9.088;2023-10-09T12:50:34;21.30;99.90
18868;DHT22;9563;49.240;9.088;2023-10-09T12:53:07;21.50;99.90
18868;DHT22;9563;49.240;9.088;2023-10-09T12:55:35;21.60;99.90
18868;DHT22;9563;49.240;9.088;2023-10-09T12:58:07;21.80;99.90
18868;DHT22;9563;49.240;9.088;2023-10-09T13:00:35;21.90;99.90
18868;DHT22;9563;49.240;9.088;2023-10-09T13:03:05;22.10;99.90
18868;DHT22;9563;49.240;9.088;2023-10-09T13:05:46;22.20;99.90
18868;DHT22;9563;49.240;9.088;2023-10-09T13:08:20;22.30;99.90
18868;DHT22;9563;49.240;9.088;2023-10-09T13:10:49;22.50;99.90
18868;DHT22;9563;49.240;9.088;2023-10-09T13:13:28;22.60;99.90
18868;DHT22;9563;49.240;9.088;2023-10-09T13:16:09;22.80;99.90
18868;DHT22;9563;49.240;9.088;2023-10-09T13:18:42;23.10;99.90
18868;DHT22;9563;49.240;9.088;2023-10-09T13:21:18;23.00;99.90
18868;DHT22;9563;49.240;9.088;2023-10-09T13:23:45;23.00;99.90
18868;DHT22;9563;49.240;9.088;2023-10-09T13:26:15;23.00;99.90
18868;DHT22;9563;49.240;9.088;2023-10-09T13:28:49;23.10;99.90
18868;DHT22;9563;49.240;9.088;2023-10-09T13:31:20;23.10;99.90
18868;DHT22;9563;49.240;9.088;2023-10-09T13:33:48;23.10;99.90
18868;DHT22;9563;49.240;9.088;2023-10-09T13:36:20;23.30;99.90
18868;DHT22;9563;49.240;9.088;2023-10-09T13:38:53;23.40;99.90
18868;DHT22;9563;49.240;9.088;2023-10-09T13:41:21;23.30;99.90
18868;DHT22;9563;49.240;9.088;2023-10-09T13:43:52;23.30;99.90
18868;DHT22;9563;49.240;9.088;2023-10-09T13:46:19;23.30;99.90
18868;DHT22;9563;49.240;9.088;2023-10-09T13:48:46;23.40;99.90
18868;DHT22;9563;49.240;9.088;2023-10-09T13:51:14;23.40;99.90
18868;DHT22;9563;49.240;9.088;2023-10-09T13:53:43;23.50;99.90
18868;DHT22;9563;49.240;9.088;2023-10-09T13:56:14;23.50;99.90
18868;DHT22;9563;49.240;9.088;2023-10-09T13:58:44;23.40;99.20
18868;DHT22;9563;49.240;9.088;2023-10-09T14:01:13;23.30;99.90
18868;DHT22;9563;49.240;9.088;2023-10-09T14:03:55;23.40;99.90
18868;DHT22;9563;49.240;9.088;2023-10-09T14:06:22;23.30;99.40
18868;DHT22;9563;49.240;9.088;2023-10-09T14:08:59;23.20;99.70
18868;DHT22;9563;49.240;9.088;2023-10-09T14:11:27;23.10;99.90
18868;DHT22;9563;49.240;9.088;2023-10-09T14:13:54;23.10;99.90
18868;DHT22;9563;49.240;9.088;2023-10-09T14:16:22;23.00;99.80
18868;DHT22;9563;49.240;9.088;2023-10-09T14:18:54;23.00;99.90
18868;DHT22;9563;49.240;9.088;2023-10-09T14:21:24;23.00;99.90
18868;DHT22;9563;49.240;9.088;2023-10-09T14:23:54;22.90;99.90
18868;DHT22;9563;49.240;9.088;2023-10-09T14:26:27;22.90;99.60
18868;DHT22;9563;49.240;9.088;2023-10-09T14:28:55;22.90;99.90
18868;DHT22;9563;49.240;9.088;2023-10-09T14:31:25;22.80;99.90
18868;DHT22;9563;49.240;9.088;2023-10-09T14:33:55;22.80;99.90
18868;DHT22;9563;49.240;9.088;2023-10-09T14:36:23;22.80;99.90
18868;DHT22;9563;49.240;9.088;2023-10-09T14:38:51;22.70;99.90
18868;DHT22;9563;49.240;9.088;2023-10-09T14:41:20;22.80;99.90
18868;DHT22;9563;49.240;9.088;2023-10-09T14:43:49;22.80;99.90
18868;DHT22;9563;49.240;9.088;2023-10-09T14:46:17;22.80;99.90
18868;DHT22;9563;49.240;9.088;2023-10-09T14:48:50;22.70;99.20
18868;DHT22;9563;49.240;9.088;2023-10-09T14:51:19;22.60;99.90
18868;DHT22;9563;49.240;9.088;2023-10-09T14:53:53;22.60;99.90
18868;DHT22;9563;49.240;9.088;2023-10-09T14:56:23;22.60;99.90
18868;DHT22;9563;49.240;9.088;2023-10-09T14:58:54;22.50;99.90
18868;DHT22;9563;49.240;9.088;2023-10-09T15:01:22;22.50;99.90
18868;DHT22;9563;49.240;9.088;2023-10-09T15:03:52;22.50;99.90
18868;DHT22;9563;49.240;9.088;2023-10-09T15:06:21;22.50;99.90
18868;DHT22;9563;49.240;9.088;2023-10-09T15:08:49;22.50;99.90
18868;DHT22;9563;49.240;9.088;2023-10-09T15:11:16;22.50;99.90
18868;DHT22;9563;49.240;9.088;2023-10-09T15:13:43;22.50;99.90
18868;DHT22;9563;49.240;9.088;2023-10-09T15:16:10;22.40;99.90
18868;DHT22;9563;49.240;9.088;2023-10-09T15:18:37;22.40;99.90
18868;DHT22;9563;49.240;9.088;2023-10-09T15:21:05;22.40;99.90
18868;DHT22;9563;49.240;9.088;2023-10-09T15:23:34;22.50;99.90
18868;DHT22;9563;49.240;9.088;2023-10-09T15:26:01;22.50;99.90
18868;DHT22;9563;49.240;9.088;2023-10-09T15:28:32;22.50;99.90
18868;DHT22;9563;49.240;9.088;2023-10-09T15:30:59;22.50;99.90
18868;DHT22;9563;49.240;9.088;2023-10-09T15:33:26;22.40;99.90
18868;DHT22;9563;49.240;9.088;2023-10-09T15:35:56;22.40;99.90
18868;DHT22;9563;49.240;9.088;2023-10-09T15:38:27;22.40;99.90
18868;DHT22;9563;49.240;9.088;2023-10-09T15:40:54;22.30;99.90
18868;DHT22;9563;49.240;9.088;2023-10-09T15:43:24;22.10;99.90
18868;DHT22;9563;49.240;9.088;2023-10-09T15:45:51;22.00;99.90
18868;DHT22;9563;49.240;9.088;2023-10-09T15:48:20;21.90;99.90
18868;DHT22;9563;49.240;9.088;2023-10-09T15:50:47;21.90;99.90
18868;DHT22;9563;49.240;9.088;2023-10-09T15:53:17;21.70;99.90
18868;DHT22;9563;49.240;9.088;2023-10-09T15:55:47;21.60;99.90
18868;DHT22;9563;49.240;9.088;2023-10-09T15:58:17;21.50;99.90
18868;DHT22;9563;49.240;9.088;2023-10-09T16:00:46;21.40;99.90
18868;DHT22;9563;49.240;9.088;2023-10-09T16:03:13;21.40;99.90
18868;DHT22;9563;49.240;9.088;2023-10-09T16:05:41;21.30;99.90
18868;DHT22;9563;49.240;9.088;2023-10-09T16:08:09;21.20;99.90
18868;DHT22;9563;49.240;9.088;2023-10-09T16:10:46;21.20;99.90
18868;DHT22;9563;49.240;9.088;2023-10-09T16:13:13;21.00;99.90
18868;DHT22;9563;49.240;9.088;2023-10-09T16:15:42;21.00;99.90
18868;DHT22;9563;49.240;9.088;2023-10-09T16:18:09;21.00;99.90
18868;DHT22;9563;49.240;9.088;2023-10-09T16:20:37;20.80;99.90
18868;DHT22;9563;49.240;9.088;2023-10-09T16:23:04;20.70;99.90
18868;DHT22;9563;49.240;9.088;2023-10-09T16:25:31;20.70;99.90
18868;DHT22;9563;49.240;9.088;2023-10-09T16:28:01;20.60;99.90
18868;DHT22;9563;49.240;9.088;2023-10-09T16:30:31;20.50;99.90
18868;DHT22;9563;49.240;9.088;2023-10-09T16:32:58;20.40;99.90
18868;DHT22;9563;49.240;9.088;2023-10-09T16:35:26;20.40;99.90
18868;DHT22;9563;49.240;9.088;2023-10-09T16:37:53;20.30;99.90
18868;DHT22;9563;49.240;9.088;2023-10-09T16:40:20;20.20;99.90
18868;DHT22;9563;49.240;9.088;2023-10-09T16:42:47;20.20;99.90
18868;DHT22;9563;49.240;9.088;2023-10-09T16:45:20;20.10;99.90
18868;DHT22;9563;49.240;9.088;2023-10-09T16:47:47;20.00;99.90
18868;DHT22;9563;49.240;9.088;2023-10-09T16:50:16;19.90;99.90
18868;DHT22;9563;49.240;9.088;2023-10-09T16:52:44;19.90;99.90
18868;DHT22;9563;49.240;9.088;2023-10-09T16:55:11;19.80;99.90
18868;DHT22;9563;49.240;9.088;2023-10-09T16:57:41;19.70;99.90
18868;DHT22;9563;49.240;9.088;2023-10-09T17:00:10;19.60;99.90
18868;DHT22;9563;49.240;9.088;2023-10-09T17:02:45;19.60;99.90
18868;DHT22;9563;49.240;9.088;2023-10-09T17:05:13;19.50;99.90
18868;DHT22;9563;49.240;9.088;2023-10-09T17:07:41;19.40;99.90
18868;DHT22;9563;49.240;9.088;2023-10-09T17:10:10;19.40;99.90
18868;DHT22;9563;49.240;9.088;2023-10-09T17:12:44;19.40;99.90
18868;DHT22;9563;49.240;9.088;2023-10-09T17:15:13;19.30;99.90
18868;DHT22;9563;49.240;9.088;2023-10-09T17:17:42;19.20;99.90
18868;DHT22;9563;49.240;9.088;2023-10-09T17:20:14;19.10;99.90
18868;DHT22;9563;49.240;9.088;2023-10-09T17:22:41;19.10;99.90
18868;DHT22;9563;49.240;9.088;2023-10-09T17:25:10;19.00;99.90
18868;DHT22;9563;49.240;9.088;2023-10-09T17:27:42;19.00;99.90
18868;DHT22;9563;49.240;9.088;2023-10-09T17:30:11;18.90;99.90
18868;DHT22;9563;49.240;9.088;2023-10-09T17:32:44;18.90;99.90
18868;DHT22;9563;49.240;9.088;2023-10-09T17:35:13;18.90;99.90
18868;DHT22;9563;49.240;9.088;2023-10-09T17:37:40;18.90;99.90
18868;DHT22;9563;49.240;9.088;2023-10-09T17:40:08;19.00;99.90
18868;DHT22;9563;49.240;9.088;2023-10-09T17:42:36;19.10;99.90
18868;DHT22;9563;49.240;9.088;2023-10-09T17:45:07;19.10;99.90
18868;DHT22;9563;49.240;9.088;2023-10-09T17:47:35;19.10;99.90
18868;DHT22;9563;49.240;9.088;2023-10-09T17:50:02;19.20;99.90
18868;DHT22;9563;49.240;9.088;2023-10-09T17:52:32;19.20;99.90
18868;DHT22;9563;49.240;9.088;2023-10-09T17:55:00;19.20;99.90
18868;DHT22;9563;49.240;9.088;2023-10-09T17:57:32;19.30;99.90
18868;DHT22;9563;49.240;9.088;2023-10-09T17:59:59;19.20;99.90
18868;DHT22;9563;49.240;9.088;2023-10-09T18:02:26;19.30;99.90
18868;DHT22;9563;49.240;9.088;2023-10-09T18:04:53;19.30;99.90
18868;DHT22;9563;49.240;9.088;2023-10-09T18:07:20;19.30;99.90
18868;DHT22;9563;49.240;9.088;2023-10-09T18:09:50;19.30;99.90
18868;DHT22;9563;49.240;9.088;2023-10-09T18:12:20;19.40;99.90
18868;DHT22;9563;49.240;9.088;2023-10-09T18:14:49;19.30;99.90
18868;DHT22;9563;49.240;9.088;2023-10-09T18:17:19;19.40;99.90
18868;DHT22;9563;49.240;9.088;2023-10-09T18:19:47;19.30;99.90
18868;DHT22;9563;49.240;9.088;2023-10-09T18:22:16;19.30;99.90
18868;DHT22;9563;49.240;9.088;2023-10-09T18:24:43;19.40;99.90
18868;DHT22;9563;49.240;9.088;2023-10-09T18:27:11;19.40;99.90
18868;DHT22;9563;49.240;9.088;2023-10-09T18:29:39;19.40;99.90
18868;DHT22;9563;49.240;9.088;2023-10-09T18:32:07;19.40;99.90
18868;DHT22;9563;49.240;9.088;2023-10-09T18:34:34;19.30;99.90
18868;DHT22;9563;49.240;9.088;2023-10-09T18:37:04;19.30;99.90
18868;DHT22;9563;49.240;9.088;2023-10-09T18:39:32;19.40;99.90
18868;DHT22;9563;49.240;9.088;2023-10-09T18:42:04;19.30;99.90
18868;DHT22;9563;49.240;9.088;2023-10-09T18:44:34;19.30;99.90
18868;DHT22;9563;49.240;9.088;2023-10-09T18:47:01;19.20;99.90
18868;DHT22;9563;49.240;9.088;2023-10-09T18:49:28;19.10;99.90
18868;DHT22;9563;49.240;9.088;2023-10-09T18:51:55;19.20;99.90
18868;DHT22;9563;49.240;9.088;2023-10-09T18:54:22;19.10;99.90
18868;DHT22;9563;49.240;9.088;2023-10-09T18:56:49;19.10;99.90
18868;DHT22;9563;49.240;9.088;2023-10-09T18:59:16;19.10;99.90
18868;DHT22;9563;49.240;9.088;2023-10-09T19:01:50;19.00;99.90
18868;DHT22;9563;49.240;9.088;2023-10-09T19:04:18;19.00;99.90
18868;DHT22;9563;49.240;9.088;2023-10-09T19:06:45;19.00;99.90
18868;DHT22;9563;49.240;9.088;2023-10-09T19:09:12;18.90;99.90
18868;DHT22;9563;49.240;9.088;2023-10-09T19:11:46;18.90;99.90
18868;DHT22;9563;49.240;9.088;2023-10-09T19:14:13;18.90;99.90
18868;DHT22;9563;49.240;9.088;2023-10-09T19:16:40;18.90;99.90
18868;DHT22;9563;49.240;9.088;2023-10-09T19:19:08;18.90;99.90
18868;DHT22;9563;49.240;9.088;2023-10-09T19:21:38;18.90;99.90
18868;DHT22;9563;49.240;9.088;2023-10-09T19:24:05;18.90;99.90
18868;DHT22;9563;49.240;9.088;2023-10-09T19:26:37;18.80;99.90
18868;DHT22;9563;49.240;9.088;2023-10-09T19:29:07;18.80;99.90
18868;DHT22;9563;49.240;9.088;2023-10-09T19:31:34;18.80;99.90
18868;DHT22;9563;49.240;9.088;2023-10-09T19:34:01;18.80;99.90
18868;DHT22;9563;49.240;9.088;2023-10-09T19:36:31;18.80;99.90
18868;DHT22;9563;49.240;9.088;2023-10-09T19:39:00;18.70;99.90
18868;DHT22;9563;49.240;9.088;2023-10-09T19:41:27;18.70;99.90
18868;DHT22;9563;49.240;9.088;2023-10-09T19:43:56;18.70;99.90
18868;DHT22;9563;49.240;9.088;2023-10-09T19:46:23;18.60;99.90
18868;DHT22;9563;49.240;9.088;2023-10-09T19:48:53;18.60;99.90
18868;DHT22;9563;49.240;9.088;2023-10-09T19:51:21;18.60;99.90
18868;DHT22;9563;49.240;9.088;2023-10-09T19:53:50;18.50;99.90
18868;DHT22;9563;49.240;9.088;2023-10-09T19:56:18;18.50;99.90
18868;DHT22;9563;49.240;9.088;2023-10-09T19:58:48;18.40;99.90
18868;DHT22;9563;49.240;9.088;2023-10-09T20:01:15;18.40;99.90
18868;DHT22;9563;49.240;9.088;2023-10-09T20:03:44;18.40;99.90
18868;DHT22;9563;49.240;9.088;2023-10-09T20:06:11;18.30;99.90
18868;DHT22;9563;49.240;9.088;2023-10-09T20:08:41;18.30;99.90
18868;DHT22;9563;49.240;9.088;2023-10-09T20:11:10;18.30;99.90
18868;DHT22;9563;49.240;9.088;2023-10-09T20:13:38;18.20;99.90
18868;DHT22;9563;49.240;9.088;2023-10-09T20:16:05;18.20;99.90
18868;DHT22;9563;49.240;9.088;2023-10-09T20:18:34;18.20;99.90
18868;DHT22;9563;49.240;9.088;2023-10-09T20:21:02;18.10;99.90
18868;DHT22;9563;49.240;9.088;2023-10-09T20:23:31;18.10;99.90
18868;DHT22;9563;49.240;9.088;2023-10-09T20:25:59;18.10;99.90